Oak Park, California
Current Conditions -  °F | °C
As of 5:51 PM on Wednesday 26 Nov 2014 (Local Time) from KVNY Reporting Station
Clear Clear  
Wind Chill: 73°   Ceiling: Unl
Heat Index: 73°   Visibility: 10mi
Dew Point: 18°   Wind: 8mph
Humidity: 12%   Direction: 360°N
Pressure: 30.14"   Gusts: NA
Location:  34.17°N, 118.76°W
Report Text: KVNY 270151Z 36007KT 10SM CLR 23/M08 A3014 RMK AO2 SLP201 T02281078
Loading
Personal Weather Stations






























Interactive Weather Map New forecast layout! Learn more

10-Day Weather Forecast

Advertisements
Track Severe Weather on mobile